Chattaroy, Washington
Current Conditions -  °F | °C
As of 5:53 AM on Saturday 25 Oct 2014 (Local Time) from KDEW Reporting Station
Clear Clear  
Wind Chill:   Ceiling: Unl
Heat Index:   Visibility: 10mi
Dew Point:   Wind: 14mph
Humidity: 74%   Direction: 40°NE
Pressure: 29.78"   Gusts: NA
Location:  47.89°N, 117.36°W
Report Text: KDEW 251253Z AUTO 04012KT 10SM CLR 08/04 A2978 RMK AO2 SLP086 T00830039
Loading
Personal Weather Stations






























Interactive Weather Map
Tropical Storm Tracking
New forecast layout! Learn more

10-Day Weather Forecast

Advertisements
Track Severe Weather on mobile